createdAt,value
2023-02-06T00:00:44.867Z,5.70
2023-02-06T00:01:44.878Z,5.80
2023-02-06T00:02:45.717Z,5.80
2023-02-06T00:03:44.849Z,6.40
2023-02-06T00:04:45.762Z,5.60
2023-02-06T00:05:44.869Z,6.10
2023-02-06T00:06:44.811Z,5.70
2023-02-06T00:07:44.803Z,6.30
2023-02-06T00:08:44.828Z,5.80
2023-02-06T00:09:44.752Z,6.70
2023-02-06T00:10:45.672Z,6.40
2023-02-06T00:11:44.736Z,6.20
2023-02-06T00:12:44.733Z,6.20
2023-02-06T00:13:44.815Z,6.10
2023-02-06T00:14:44.692Z,6.30
2023-02-06T00:15:44.750Z,6.00
2023-02-06T00:16:45.627Z,6.80
2023-02-06T00:17:44.676Z,6.30
2023-02-06T00:18:44.666Z,6.40
2023-02-06T00:19:44.651Z,6.20
2023-02-06T00:20:44.619Z,6.20
2023-02-06T00:21:45.536Z,6.60
2023-02-06T00:22:44.634Z,6.00
2023-02-06T00:23:44.617Z,6.30
2023-02-06T00:24:44.583Z,6.00
2023-02-06T00:25:44.600Z,6.70
2023-02-06T00:26:45.476Z,5.80
2023-02-06T00:27:44.549Z,6.00
2023-02-06T00:28:44.518Z,6.20
2023-02-06T00:29:44.534Z,6.50
2023-02-06T00:30:44.536Z,6.70
2023-02-06T00:31:44.585Z,7.20
2023-02-06T00:32:45.523Z,7.20
2023-02-06T00:33:44.484Z,6.20
2023-02-06T00:34:44.470Z,6.40
2023-02-06T00:35:44.484Z,6.40
2023-02-06T00:36:44.449Z,6.70
2023-02-06T00:37:44.412Z,6.10
2023-02-06T00:38:45.398Z,6.30
2023-02-06T00:39:44.403Z,6.10
2023-02-06T00:40:44.399Z,7.20
2023-02-06T00:41:44.454Z,6.70
2023-02-06T00:42:44.356Z,7.20
2023-02-06T00:43:45.298Z,6.50
2023-02-06T00:44:44.321Z,7.50
2023-02-06T00:45:44.314Z,7.50
2023-02-06T00:46:44.473Z,7.10
2023-02-06T00:47:44.301Z,6.60
2023-02-06T00:48:45.203Z,7.30
2023-02-06T00:49:44.289Z,6.80
2023-02-06T00:50:44.274Z,8.30
2023-02-06T00:51:44.277Z,7.00
2023-02-06T00:52:44.240Z,7.10
2023-02-06T00:53:44.246Z,6.60
2023-02-06T00:54:45.172Z,7.20
2023-02-06T00:55:44.192Z,6.90
2023-02-06T00:56:44.223Z,8.40
2023-02-06T00:57:44.203Z,7.80
2023-02-06T00:58:44.184Z,7.30
2023-02-06T00:59:45.072Z,6.40
2023-02-06T01:00:44.136Z,7.30
2023-02-06T01:01:44.147Z,7.20
2023-02-06T01:02:44.180Z,7.10
2023-02-06T01:03:44.122Z,8.10
2023-02-06T01:04:44.085Z,9.00
2023-02-06T01:05:45.003Z,8.40
2023-02-06T01:06:44.903Z,8.20
2023-02-06T01:07:44.120Z,8.30
2023-02-06T01:08:44.156Z,8.10
2023-02-06T01:09:44.067Z,7.80
2023-02-06T01:10:44.046Z,7.30
2023-02-06T01:11:44.940Z,7.70
2023-02-06T01:12:43.996Z,7.80
2023-02-06T01:13:44.047Z,7.40
2023-02-06T01:14:43.961Z,6.90
2023-02-06T01:15:44.135Z,8.00
2023-02-06T01:16:43.954Z,7.60
2023-02-06T01:17:44.896Z,7.50
2023-02-06T01:18:43.910Z,7.30
2023-02-06T01:19:43.895Z,7.90
2023-02-06T01:20:43.900Z,7.80
2023-02-06T01:21:43.889Z,7.70
2023-02-06T01:22:43.869Z,7.70
2023-02-06T01:23:44.780Z,7.40
2023-02-06T01:24:43.870Z,7.90
2023-02-06T01:25:43.857Z,7.50
2023-02-06T01:26:43.831Z,7.00
2023-02-06T01:27:43.844Z,7.30
2023-02-06T01:28:43.795Z,7.90
2023-02-06T01:29:44.685Z,7.90
2023-02-06T01:30:43.785Z,7.80
2023-02-06T01:31:43.784Z,8.50
2023-02-06T01:32:43.738Z,6.50
2023-02-06T01:33:43.745Z,7.40
2023-02-06T01:34:43.737Z,8.00
2023-02-06T01:35:44.646Z,9.10
2023-02-06T01:36:43.697Z,7.90
2023-02-06T01:37:43.695Z,7.20
2023-02-06T01:38:43.676Z,7.10
2023-02-06T01:39:43.642Z,7.80
2023-02-06T01:40:43.625Z,7.90
2023-02-06T01:41:44.556Z,7.30
2023-02-06T01:42:43.634Z,7.60
2023-02-06T01:43:43.591Z,7.90
2023-02-06T01:44:43.596Z,6.90
2023-02-06T01:45:43.595Z,7.30
2023-02-06T01:46:44.594Z,8.50
2023-02-06T01:47:43.566Z,7.80
2023-02-06T01:48:43.552Z,7.30
2023-02-06T01:49:43.539Z,7.70
2023-02-06T01:50:43.512Z,6.60
2023-02-06T01:51:44.445Z,7.40
2023-02-06T01:52:43.511Z,7.90
2023-02-06T01:53:44.355Z,6.70
2023-02-06T01:54:43.488Z,7.70
2023-02-06T01:55:43.450Z,8.20
2023-02-06T01:56:43.438Z,7.80
2023-02-06T01:57:44.372Z,7.30
2023-02-06T01:58:43.420Z,7.50
2023-02-06T01:59:43.437Z,7.70
2023-02-06T02:00:43.437Z,7.70
2023-02-06T02:01:43.405Z,7.20
2023-02-06T02:02:44.299Z,7.90
2023-02-06T02:03:43.350Z,8.10
2023-02-06T02:04:43.353Z,8.40
2023-02-06T02:05:43.341Z,7.80
2023-02-06T02:06:43.322Z,7.30
2023-02-06T02:07:43.297Z,7.20
2023-02-06T02:08:44.226Z,7.80
2023-02-06T02:09:43.291Z,7.80
2023-02-06T02:10:43.296Z,7.70
2023-02-06T02:11:43.272Z,7.70
2023-02-06T02:12:43.245Z,7.80
2023-02-06T02:13:43.243Z,7.60
2023-02-06T02:14:44.181Z,7.50
2023-02-06T02:15:43.230Z,8.00
2023-02-06T02:16:43.244Z,8.20
2023-02-06T02:17:43.204Z,7.70
2023-02-06T02:18:43.212Z,8.60
2023-02-06T02:19:44.102Z,7.30
2023-02-06T02:20:43.140Z,7.70
2023-02-06T02:21:43.157Z,8.70
2023-02-06T02:22:43.165Z,8.20
2023-02-06T02:23:43.126Z,7.40
2023-02-06T02:24:44.075Z,8.00
2023-02-06T02:25:43.102Z,8.20
2023-02-06T02:26:43.080Z,8.30
2023-02-06T02:27:43.235Z,7.10
2023-02-06T02:28:43.057Z,7.80
2023-02-06T02:29:43.064Z,8.50
2023-02-06T02:30:44.001Z,7.10
2023-02-06T02:31:43.041Z,7.70
2023-02-06T02:32:43.015Z,7.40
2023-02-06T02:33:42.988Z,7.40
2023-02-06T02:34:43.007Z,7.60
2023-02-06T02:35:43.126Z,7.50
2023-02-06T02:36:43.972Z,7.90
2023-02-06T02:37:42.941Z,7.00
2023-02-06T02:38:42.918Z,7.80
2023-02-06T02:39:42.934Z,6.90
2023-02-06T02:40:42.920Z,8.30
2023-02-06T02:41:43.846Z,7.30
2023-02-06T02:42:42.880Z,8.00
2023-02-06T02:43:42.881Z,7.90
2023-02-06T02:44:42.857Z,8.20
2023-02-06T02:45:42.888Z,7.80
2023-02-06T02:46:43.769Z,7.10
2023-02-06T02:47:42.839Z,7.60
2023-02-06T02:48:42.813Z,7.10
2023-02-06T02:49:42.799Z,7.40
2023-02-06T02:50:42.775Z,8.50
2023-02-06T02:51:42.769Z,8.30
2023-02-06T02:52:43.692Z,7.60
2023-02-06T02:53:42.779Z,7.40
2023-02-06T02:54:42.726Z,7.30
2023-02-06T02:55:42.700Z,7.70
2023-02-06T02:56:42.715Z,7.80
2023-02-06T02:57:43.622Z,7.10
2023-02-06T02:58:42.670Z,7.40
2023-02-06T02:59:42.692Z,6.60
2023-02-06T03:00:42.715Z,7.50
2023-02-06T03:01:43.479Z,6.90
2023-02-06T03:02:43.555Z,7.20
2023-02-06T03:03:42.616Z,7.50
2023-02-06T03:04:42.621Z,6.80
2023-02-06T03:05:42.592Z,6.70
2023-02-06T03:06:42.579Z,7.30
2023-02-06T03:07:42.557Z,6.70
2023-02-06T03:08:43.501Z,7.90
2023-02-06T03:09:44.283Z,6.90
2023-02-06T03:10:42.529Z,6.40
2023-02-06T03:11:42.496Z,6.50
2023-02-06T03:12:42.495Z,6.70
2023-02-06T03:13:43.413Z,6.20
2023-02-06T03:14:42.477Z,6.80
2023-02-06T03:15:42.465Z,6.40
2023-02-06T03:16:42.468Z,6.40
2023-02-06T03:17:42.433Z,6.30
2023-02-06T03:18:42.416Z,7.00
2023-02-06T03:19:43.365Z,6.20
2023-02-06T03:20:42.424Z,6.10
2023-02-06T03:21:42.384Z,6.60
2023-02-06T03:22:42.370Z,6.20
2023-02-06T03:23:42.353Z,6.30
2023-02-06T03:24:42.356Z,5.80
2023-02-06T03:25:43.285Z,6.60
2023-02-06T03:26:42.325Z,6.50
2023-02-06T03:27:42.329Z,6.00
2023-02-06T03:28:42.305Z,6.00
2023-02-06T03:29:42.302Z,6.00
2023-02-06T03:30:42.286Z,5.80
2023-02-06T03:31:43.236Z,5.70
2023-02-06T03:32:42.264Z,6.40
2023-02-06T03:33:42.258Z,5.40
2023-02-06T03:34:42.274Z,5.30
2023-02-06T03:35:42.216Z,5.30
2023-02-06T03:36:42.217Z,6.40
2023-02-06T03:37:43.143Z,5.10
2023-02-06T03:38:42.194Z,5.40
2023-02-06T03:39:42.175Z,5.70
2023-02-06T03:40:42.187Z,5.80
2023-02-06T03:41:42.164Z,5.20
2023-02-06T03:42:42.188Z,5.10
2023-02-06T03:43:43.051Z,5.30
2023-02-06T03:44:42.111Z,5.30
2023-02-06T03:45:42.167Z,5.20
2023-02-06T03:46:42.203Z,6.00
2023-02-06T03:47:42.119Z,5.50
2023-02-06T03:48:43.004Z,5.80
2023-02-06T03:49:42.066Z,4.60
2023-02-06T03:50:42.036Z,5.10
2023-02-06T03:51:42.016Z,4.90
2023-02-06T03:52:42.010Z,4.80
2023-02-06T03:53:42.008Z,5.60
2023-02-06T03:54:42.944Z,5.00
2023-02-06T03:55:41.972Z,5.10
2023-02-06T03:56:41.949Z,4.70
2023-02-06T03:57:42.012Z,4.80
2023-02-06T03:58:41.961Z,4.80
2023-02-06T03:59:41.926Z,5.30
2023-02-06T04:00:42.929Z,4.30
2023-02-06T04:01:41.909Z,4.60
2023-02-06T04:02:41.974Z,4.70
2023-02-06T04:03:41.923Z,4.90
2023-02-06T04:04:41.888Z,4.90
2023-02-06T04:05:41.910Z,5.20
2023-02-06T04:06:42.771Z,4.90
2023-02-06T04:07:41.837Z,5.40
2023-02-06T04:08:41.818Z,4.80
2023-02-06T04:09:41.806Z,5.10
2023-02-06T04:10:41.881Z,5.20
2023-02-06T04:11:41.811Z,4.70
2023-02-06T04:12:42.713Z,4.90
2023-02-06T04:13:41.770Z,4.80
2023-02-06T04:14:41.774Z,5.40
2023-02-06T04:15:41.740Z,4.40
2023-02-06T04:16:41.761Z,5.00
2023-02-06T04:17:57.664Z,4.90
2023-02-06T04:18:43.204Z,4.50
2023-02-06T04:19:42.569Z,4.40
2023-02-06T04:20:41.680Z,4.70
2023-02-06T04:21:41.670Z,4.90
2023-02-06T04:22:41.650Z,4.80
2023-02-06T04:23:42.558Z,4.30
2023-02-06T04:24:41.752Z,4.30
2023-02-06T04:25:41.723Z,4.60
2023-02-06T04:26:41.620Z,4.90
2023-02-06T04:27:41.583Z,5.00
2023-02-06T04:28:42.524Z,4.80
2023-02-06T04:29:41.564Z,5.10
2023-02-06T04:30:41.673Z,5.50
2023-02-06T04:31:41.614Z,5.30
2023-02-06T04:32:41.533Z,4.40
2023-02-06T04:33:42.551Z,5.20
2023-02-06T04:34:41.497Z,4.90
2023-02-06T04:35:41.514Z,5.80
2023-02-06T04:36:41.494Z,4.40
2023-02-06T04:37:41.490Z,4.80
2023-02-06T04:38:41.451Z,4.60
2023-02-06T04:39:42.402Z,5.20
2023-02-06T04:40:41.415Z,4.30
2023-02-06T04:41:41.414Z,4.80
2023-02-06T04:42:41.427Z,5.30
2023-02-06T04:43:42.219Z,4.80
2023-02-06T04:44:41.458Z,4.80
2023-02-06T04:45:42.397Z,5.40
2023-02-06T04:46:41.355Z,5.90
2023-02-06T04:47:41.364Z,5.40
2023-02-06T04:48:41.388Z,4.90
2023-02-06T04:49:41.333Z,4.80
2023-02-06T04:50:42.228Z,5.20
2023-02-06T04:51:41.283Z,5.40
2023-02-06T04:52:41.372Z,5.40
2023-02-06T04:53:41.271Z,5.30
2023-02-06T04:54:41.282Z,4.60
2023-02-06T04:55:42.184Z,5.60
2023-02-06T04:56:41.217Z,5.50
2023-02-06T04:57:41.221Z,5.50
2023-02-06T04:58:41.234Z,5.60
2023-02-06T04:59:41.184Z,5.00
2023-02-06T05:00:42.111Z,6.10
2023-02-06T05:01:41.170Z,7.90
2023-02-06T05:02:41.151Z,8.30
2023-02-06T05:03:41.149Z,6.50
2023-02-06T05:04:41.138Z,6.30
2023-02-06T05:05:42.045Z,18.00
2023-02-06T05:06:41.135Z,8.00
2023-02-06T05:07:41.097Z,7.50
2023-02-06T05:08:41.072Z,6.00
2023-02-06T05:09:41.076Z,5.80
2023-02-06T05:10:41.075Z,5.90
2023-02-06T05:11:41.962Z,5.80
2023-02-06T05:12:41.010Z,5.60
2023-02-06T05:13:41.042Z,5.30
2023-02-06T05:14:41.002Z,5.50
2023-02-06T05:15:41.080Z,5.50
2023-02-06T05:16:41.888Z,5.50
2023-02-06T05:17:41.917Z,5.70
2023-02-06T05:18:40.961Z,5.40
2023-02-06T05:19:40.940Z,5.40
2023-02-06T05:20:41.122Z,5.80
2023-02-06T05:21:41.999Z,5.20
2023-02-06T05:22:42.207Z,5.90
2023-02-06T05:23:40.881Z,6.40
2023-02-06T05:24:40.888Z,5.10
2023-02-06T05:25:42.251Z,5.20
2023-02-06T05:26:40.861Z,5.40
2023-02-06T05:27:41.840Z,5.00
2023-02-06T05:28:40.817Z,5.90
2023-02-06T05:29:40.812Z,5.50
2023-02-06T05:30:40.896Z,5.10
2023-02-06T05:31:40.854Z,5.20
2023-02-06T05:32:40.870Z,6.10
2023-02-06T05:33:41.703Z,5.80
2023-02-06T05:34:40.761Z,5.40
2023-02-06T05:35:40.738Z,6.10
2023-02-06T05:36:40.728Z,6.00
2023-02-06T05:37:40.716Z,6.70
2023-02-06T05:38:40.750Z,6.10
2023-02-06T05:39:41.607Z,6.40
2023-02-06T05:40:40.672Z,5.60
2023-02-06T05:41:40.703Z,6.20
2023-02-06T05:42:40.666Z,6.20
2023-02-06T05:43:40.677Z,5.70
2023-02-06T05:44:41.572Z,5.40
2023-02-06T05:45:41.025Z,6.10
2023-02-06T05:46:40.650Z,6.10
2023-02-06T05:47:40.612Z,5.70
2023-02-06T05:48:40.625Z,6.10
2023-02-06T05:49:40.621Z,6.30
2023-02-06T05:50:43.254Z,6.50
2023-02-06T05:51:40.580Z,6.90
2023-02-06T05:52:40.526Z,6.10
2023-02-06T05:53:40.537Z,6.30
2023-02-06T05:54:40.531Z,5.80
2023-02-06T05:55:40.557Z,6.10
2023-02-06T05:56:41.403Z,6.50
2023-02-06T05:57:40.465Z,6.50
2023-02-06T05:58:40.448Z,6.50
2023-02-06T05:59:40.468Z,5.80
2023-02-06T06:00:40.477Z,6.50
2023-02-06T06:01:40.437Z,7.20
2023-02-06T06:02:41.349Z,6.70
2023-02-06T06:03:40.423Z,5.70
2023-02-06T06:04:40.432Z,6.10
2023-02-06T06:05:40.385Z,6.30
2023-02-06T06:06:40.345Z,6.30
2023-02-06T06:07:41.278Z,7.20
2023-02-06T06:08:40.332Z,6.90
2023-02-06T06:09:40.340Z,6.40
2023-02-06T06:10:40.311Z,6.00
2023-02-06T06:11:40.292Z,6.70
2023-02-06T06:12:41.235Z,6.10
2023-02-06T06:13:40.300Z,6.90
2023-02-06T06:14:40.278Z,6.60
2023-02-06T06:15:40.288Z,6.40
2023-02-06T06:16:41.095Z,6.80
2023-02-06T06:17:40.222Z,6.90
2023-02-06T06:18:41.167Z,5.90
2023-02-06T06:19:40.212Z,7.00
2023-02-06T06:20:40.182Z,6.80
2023-02-06T06:21:40.182Z,6.90
2023-02-06T06:22:40.198Z,7.40
2023-02-06T06:23:41.089Z,7.20
2023-02-06T06:24:40.146Z,7.60
2023-02-06T06:25:40.118Z,6.50
2023-02-06T06:26:40.114Z,7.50
2023-02-06T06:27:40.111Z,7.20
2023-02-06T06:28:40.091Z,8.10
2023-02-06T06:29:40.994Z,7.90
2023-02-06T06:30:40.129Z,7.70
2023-02-06T06:31:40.088Z,7.00
2023-02-06T06:32:40.041Z,7.90
2023-02-06T06:33:40.049Z,7.60
2023-02-06T06:34:40.008Z,7.00
2023-02-06T06:35:40.980Z,7.10
2023-02-06T06:36:40.027Z,6.80
2023-02-06T06:37:39.992Z,6.50
2023-02-06T06:38:39.966Z,7.80
2023-02-06T06:39:39.978Z,7.80
2023-02-06T06:40:40.868Z,6.60
2023-02-06T06:41:39.929Z,7.80
2023-02-06T06:42:39.909Z,6.70
2023-02-06T06:43:39.900Z,7.90
2023-02-06T06:44:39.893Z,7.80
2023-02-06T06:45:40.814Z,8.60
2023-02-06T06:46:39.874Z,8.20
2023-02-06T06:47:39.865Z,8.10
2023-02-06T06:48:39.845Z,8.10
2023-02-06T06:49:39.846Z,8.00
2023-02-06T06:50:39.830Z,8.50
2023-02-06T06:51:40.784Z,8.60
2023-02-06T06:52:39.791Z,8.70
2023-02-06T06:53:39.821Z,8.10
2023-02-06T06:54:39.777Z,7.90
2023-02-06T06:55:39.785Z,9.10
2023-02-06T06:56:39.797Z,8.50
2023-02-06T06:57:40.641Z,9.50
2023-02-06T06:58:39.710Z,9.20
2023-02-06T06:59:39.706Z,8.60
2023-02-06T07:00:39.833Z,9.20
2023-02-06T07:01:39.665Z,8.70
2023-02-06T07:02:40.647Z,8.40
2023-02-06T07:03:39.684Z,8.70
2023-02-06T07:04:39.632Z,8.70
2023-02-06T07:05:39.656Z,8.90
2023-02-06T07:06:39.622Z,8.40
2023-02-06T07:07:39.728Z,9.10
2023-02-06T07:08:40.541Z,9.00
2023-02-06T07:09:39.570Z,8.20
2023-02-06T07:10:39.592Z,8.80
2023-02-06T07:11:39.730Z,8.10
2023-02-06T07:12:39.550Z,8.90
2023-02-06T07:13:40.516Z,7.60
2023-02-06T07:14:39.507Z,8.90
2023-02-06T07:15:39.513Z,8.80
2023-02-06T07:16:39.574Z,9.00
2023-02-06T07:17:39.499Z,8.70
2023-02-06T07:18:40.411Z,9.00
2023-02-06T07:19:39.452Z,8.60
2023-02-06T07:20:39.439Z,8.70
2023-02-06T07:21:39.466Z,9.50
2023-02-06T07:22:39.418Z,8.90
2023-02-06T07:23:40.343Z,8.80
2023-02-06T07:24:39.421Z,8.50
2023-02-06T07:25:39.409Z,8.00
2023-02-06T07:26:39.381Z,8.60
2023-02-06T07:27:39.388Z,9.10
2023-02-06T07:28:40.297Z,8.70
2023-02-06T07:29:39.349Z,9.60
2023-02-06T07:30:39.340Z,9.50
2023-02-06T07:31:39.358Z,9.80
2023-02-06T07:32:39.287Z,9.20
2023-02-06T07:33:40.219Z,9.10
2023-02-06T07:34:39.288Z,9.00
2023-02-06T07:35:39.254Z,8.60
2023-02-06T07:36:39.245Z,9.30
2023-02-06T07:37:39.265Z,9.70
2023-02-06T07:38:40.184Z,9.00
2023-02-06T07:39:39.317Z,9.50
2023-02-06T07:40:45.097Z,9.20
2023-02-06T07:41:40.710Z,10.00
2023-02-06T07:42:39.179Z,9.00
2023-02-06T07:43:40.125Z,9.30
2023-02-06T07:44:39.228Z,9.30
2023-02-06T07:45:39.408Z,10.10
2023-02-06T07:46:39.147Z,8.60
2023-02-06T07:47:39.122Z,8.80
2023-02-06T07:48:40.016Z,8.30
2023-02-06T07:49:39.118Z,9.10
2023-02-06T07:50:39.111Z,9.50
2023-02-06T07:51:39.044Z,10.90
2023-02-06T07:52:39.035Z,10.30
2023-02-06T07:53:39.976Z,8.90
2023-02-06T07:54:39.034Z,9.10
2023-02-06T07:55:39.269Z,9.50
2023-02-06T07:56:38.996Z,9.10
2023-02-06T07:57:38.970Z,10.10
2023-02-06T07:58:38.986Z,9.10
2023-02-06T07:59:39.880Z,9.60
2023-02-06T08:00:38.968Z,9.00
2023-02-06T08:01:38.950Z,9.10
2023-02-06T08:02:38.937Z,8.90
2023-02-06T08:03:38.930Z,9.40
2023-02-06T08:04:38.954Z,8.40
2023-02-06T08:05:39.837Z,8.60
2023-02-06T08:06:38.990Z,8.30
2023-02-06T08:07:38.914Z,8.00
2023-02-06T08:08:38.847Z,9.10
2023-02-06T08:09:38.864Z,8.10
2023-02-06T08:10:38.863Z,9.50
2023-02-06T08:11:39.758Z,8.70
2023-02-06T08:12:38.850Z,9.20
2023-02-06T08:13:38.942Z,9.10
2023-02-06T08:14:38.833Z,8.70
2023-02-06T08:15:38.785Z,9.30
2023-02-06T08:16:39.707Z,9.50
2023-02-06T08:17:38.846Z,9.80
2023-02-06T08:18:38.886Z,9.00
2023-02-06T08:19:38.715Z,8.80
2023-02-06T08:20:38.740Z,9.10
2023-02-06T08:21:38.721Z,9.30
2023-02-06T08:22:39.712Z,8.20
2023-02-06T08:23:38.691Z,8.50
2023-02-06T08:24:38.669Z,9.80
2023-02-06T08:25:38.944Z,9.70
2023-02-06T08:26:38.638Z,9.20
2023-02-06T08:27:44.912Z,9.00
2023-02-06T08:28:39.734Z,9.20
2023-02-06T08:29:38.650Z,9.30
2023-02-06T08:30:38.642Z,9.10
2023-02-06T08:31:39.487Z,9.40
2023-02-06T08:32:38.563Z,7.90
2023-02-06T08:33:39.537Z,9.40
2023-02-06T08:34:38.529Z,9.20
2023-02-06T08:35:38.517Z,8.70
2023-02-06T08:36:38.522Z,9.10
2023-02-06T08:37:38.590Z,9.00
2023-02-06T08:38:39.446Z,8.40
2023-02-06T08:39:39.313Z,9.50
2023-02-06T08:40:38.486Z,9.20
2023-02-06T08:41:38.444Z,10.40
2023-02-06T08:42:38.436Z,11.00
2023-02-06T08:43:38.491Z,10.30
2023-02-06T08:44:39.495Z,9.10
2023-02-06T08:45:38.444Z,9.70
2023-02-06T08:46:38.426Z,9.00
2023-02-06T08:47:38.417Z,10.10
2023-02-06T08:48:38.362Z,9.80
2023-02-06T08:49:38.425Z,10.40
2023-02-06T08:50:39.294Z,12.10
2023-02-06T08:51:39.173Z,11.00
2023-02-06T08:52:38.350Z,9.80
2023-02-06T08:53:38.314Z,10.90
2023-02-06T08:54:38.989Z,10.10
2023-02-06T08:55:38.605Z,10.40
2023-02-06T08:56:39.322Z,11.10
2023-02-06T08:58:35.665Z,12.60
2023-02-06T08:59:35.693Z,11.50
2023-02-06T09:00:35.669Z,10.90
2023-02-06T09:01:35.678Z,12.60
2023-02-06T09:02:36.592Z,13.20
2023-02-06T09:03:35.697Z,12.50
2023-02-06T09:04:35.882Z,13.30
2023-02-06T09:05:35.828Z,11.10
2023-02-06T09:06:46.522Z,12.60
2023-02-06T09:07:35.633Z,11.80
2023-02-06T09:08:36.525Z,12.40
2023-02-06T09:09:35.562Z,12.50
2023-02-06T09:10:35.544Z,12.10
2023-02-06T09:11:35.668Z,11.90
2023-02-06T09:12:35.741Z,14.20
2023-02-06T09:13:36.621Z,12.70
2023-02-06T09:14:35.645Z,12.70
2023-02-06T09:15:35.874Z,13.00
2023-02-06T09:16:35.612Z,13.20
2023-02-06T09:17:35.523Z,13.90
2023-02-06T09:18:36.431Z,12.60
2023-02-06T09:19:35.544Z,14.80
2023-02-06T09:20:35.514Z,15.10
2023-02-06T09:21:35.828Z,15.10
2023-02-06T09:22:35.562Z,13.90
2023-02-06T09:23:35.429Z,14.20
2023-02-06T09:24:36.279Z,13.40
2023-02-06T09:25:35.806Z,13.00
2023-02-06T09:26:35.366Z,13.90
2023-02-06T09:27:35.353Z,13.80
2023-02-06T09:28:35.343Z,13.10
2023-02-06T09:29:41.532Z,15.00
2023-02-06T09:30:36.237Z,13.20
2023-02-06T09:31:35.306Z,12.50
2023-02-06T09:32:35.263Z,13.60
2023-02-06T09:33:35.376Z,12.70
2023-02-06T09:34:36.243Z,14.70
2023-02-06T09:35:36.406Z,13.30
2023-02-06T09:36:35.330Z,14.90
2023-02-06T09:37:35.492Z,14.00
2023-02-06T09:38:35.405Z,16.80
2023-02-06T09:39:35.214Z,14.30
2023-02-06T09:40:36.150Z,13.40
2023-02-06T09:41:35.208Z,13.90
2023-02-06T09:42:35.988Z,14.50
2023-02-06T09:43:35.293Z,15.00
2023-02-06T09:44:35.153Z,14.20
2023-02-06T09:45:36.504Z,14.30
2023-02-06T09:46:35.085Z,15.10
2023-02-06T09:47:35.085Z,15.30
2023-02-06T09:48:38.071Z,16.30
2023-02-06T09:49:35.173Z,13.80
2023-02-06T09:50:36.034Z,15.40
2023-02-06T09:51:35.125Z,13.90
2023-02-06T09:52:35.918Z,14.60
2023-02-06T09:53:35.127Z,15.10
2023-02-06T09:54:35.738Z,14.30
2023-02-06T09:55:36.374Z,12.60
2023-02-06T09:56:35.048Z,13.50
2023-02-06T09:57:35.147Z,13.70
2023-02-06T09:58:35.146Z,14.00
2023-02-06T09:59:34.996Z,13.10
2023-02-06T10:00:35.058Z,13.30
2023-02-06T10:01:36.000Z,12.00
2023-02-06T10:02:34.865Z,13.00
2023-02-06T10:03:34.905Z,13.80
2023-02-06T10:04:34.883Z,12.30
2023-02-06T10:05:35.265Z,11.90
2023-02-06T10:06:35.760Z,12.80
2023-02-06T10:07:34.915Z,11.00
2023-02-06T10:08:34.815Z,11.90
2023-02-06T10:09:35.648Z,12.30
2023-02-06T10:10:34.828Z,12.30
2023-02-06T10:11:34.838Z,12.80
2023-02-06T10:12:36.604Z,12.50
2023-02-06T10:13:35.696Z,11.40
2023-02-06T10:14:35.568Z,12.20
2023-02-06T10:15:35.126Z,12.50
2023-02-06T10:16:35.472Z,11.50
2023-02-06T10:17:35.782Z,10.80
2023-02-06T10:18:34.709Z,11.60
2023-02-06T10:19:34.711Z,11.40
2023-02-06T10:20:34.696Z,11.50
2023-02-06T10:21:34.721Z,11.50
2023-02-06T10:22:34.683Z,11.40
2023-02-06T10:23:35.666Z,11.90
2023-02-06T10:24:34.632Z,11.20
2023-02-06T10:25:34.836Z,11.30
2023-02-06T10:26:34.645Z,12.70
2023-02-06T10:27:34.748Z,12.80
2023-02-06T10:28:34.576Z,11.80
2023-02-06T10:29:35.559Z,12.40
2023-02-06T10:30:34.562Z,11.30
2023-02-06T10:31:34.738Z,12.30
2023-02-06T10:32:35.389Z,11.40
2023-02-06T10:33:34.504Z,11.20
2023-02-06T10:34:34.540Z,11.80
2023-02-06T10:35:40.848Z,11.80
2023-02-06T10:36:34.498Z,9.90
2023-02-06T10:37:34.514Z,11.20
2023-02-06T10:38:34.952Z,11.80
2023-02-06T10:39:34.452Z,10.90
2023-02-06T10:40:34.408Z,10.20
2023-02-06T10:41:35.367Z,10.70
2023-02-06T10:42:34.538Z,10.60
2023-02-06T10:43:34.379Z,10.90
2023-02-06T10:44:34.540Z,11.00
2023-02-06T10:45:34.681Z,10.60
2023-02-06T10:46:35.329Z,10.20
2023-02-06T10:47:35.871Z,12.30
2023-02-06T10:48:34.461Z,11.60
2023-02-06T10:49:34.632Z,11.40
2023-02-06T10:50:34.621Z,10.40
2023-02-06T10:51:34.491Z,9.60
2023-02-06T10:52:35.417Z,11.70
2023-02-06T10:53:34.660Z,10.90
2023-02-06T10:54:35.292Z,10.70
2023-02-06T10:55:34.222Z,11.30
2023-02-06T10:56:34.277Z,10.40
2023-02-06T10:57:34.230Z,10.90
2023-02-06T10:58:35.084Z,12.60
2023-02-06T10:59:34.250Z,11.10
2023-02-06T11:00:34.528Z,11.50
2023-02-06T11:01:34.159Z,10.70
2023-02-06T11:02:34.214Z,11.30
2023-02-06T11:03:35.208Z,11.30
2023-02-06T11:04:35.399Z,12.20
2023-02-06T11:05:34.340Z,12.40
2023-02-06T11:06:34.226Z,10.50
2023-02-06T11:07:34.101Z,10.30
2023-02-06T11:08:34.031Z,11.60
2023-02-06T11:09:34.021Z,11.70
2023-02-06T11:10:35.374Z,10.10
2023-02-06T11:11:34.008Z,10.90
2023-02-06T11:12:34.035Z,9.90
2023-02-06T11:13:33.997Z,10.20
2023-02-06T11:14:34.154Z,11.10
2023-02-06T11:15:35.144Z,11.20
2023-02-06T11:16:33.998Z,9.90
2023-02-06T11:17:34.709Z,11.70
2023-02-06T11:18:34.118Z,9.50
2023-02-06T11:19:33.910Z,10.30
2023-02-06T11:20:34.349Z,9.60
2023-02-06T11:21:34.805Z,9.00
2023-02-06T11:22:44.269Z,10.00
2023-02-06T11:23:35.682Z,9.70
2023-02-06T11:24:33.922Z,9.30
2023-02-06T11:25:33.877Z,9.80
2023-02-06T11:26:34.877Z,9.70
2023-02-06T11:27:33.832Z,10.90
2023-02-06T11:28:33.811Z,9.90
2023-02-06T11:29:33.846Z,9.10
2023-02-06T11:30:33.934Z,9.30
2023-02-06T11:31:33.853Z,11.00
2023-02-06T11:32:34.715Z,9.30
2023-02-06T11:33:33.774Z,9.10
2023-02-06T11:34:33.702Z,11.20
2023-02-06T11:35:33.806Z,10.30
2023-02-06T11:36:33.712Z,10.30
2023-02-06T11:37:33.730Z,10.60
2023-02-06T11:38:34.630Z,8.90
2023-02-06T11:39:33.800Z,11.10
2023-02-06T11:40:33.642Z,11.10
2023-02-06T11:41:33.668Z,11.20
2023-02-06T11:42:33.613Z,11.10
2023-02-06T11:43:33.633Z,10.20
2023-02-06T11:44:34.572Z,10.40
2023-02-06T11:45:33.621Z,10.40
2023-02-06T11:46:33.657Z,11.90
2023-02-06T11:47:33.691Z,11.70
2023-02-06T11:48:34.368Z,12.10
2023-02-06T11:49:33.667Z,11.10
2023-02-06T11:50:34.908Z,11.50
2023-02-06T11:51:33.493Z,10.30
2023-02-06T11:52:33.502Z,11.40
2023-02-06T11:53:33.488Z,10.90
2023-02-06T11:54:33.742Z,10.50
2023-02-06T11:55:34.580Z,11.20
2023-02-06T11:56:33.445Z,10.10
2023-02-06T11:57:33.545Z,11.40
2023-02-06T11:58:33.572Z,12.20
2023-02-06T11:59:33.457Z,11.50
2023-02-06T12:00:33.433Z,11.40
2023-02-06T12:01:34.479Z,11.40
2023-02-06T12:02:33.361Z,10.50
2023-02-06T12:03:33.417Z,11.40
2023-02-06T12:04:33.304Z,10.50
2023-02-06T12:05:33.313Z,11.70
2023-02-06T12:06:33.298Z,11.00
2023-02-06T12:07:34.216Z,11.40
2023-02-06T12:08:33.314Z,11.50
2023-02-06T12:09:33.401Z,11.60
2023-02-06T12:10:33.259Z,11.70
2023-02-06T12:11:33.245Z,11.60
2023-02-06T12:12:33.258Z,11.30
2023-02-06T12:13:34.199Z,12.00
2023-02-06T12:14:33.252Z,12.70
2023-02-06T12:15:45.977Z,11.80
2023-02-06T12:16:35.852Z,12.90
2023-02-06T12:17:34.398Z,12.80
2023-02-06T12:18:34.080Z,12.20
2023-02-06T12:19:33.144Z,11.80
2023-02-06T12:20:33.111Z,12.70
2023-02-06T12:21:33.130Z,13.00
2023-02-06T12:22:33.107Z,13.60
2023-02-06T12:23:34.003Z,11.80
2023-02-06T12:24:33.121Z,12.40
2023-02-06T12:25:33.117Z,12.20
2023-02-06T12:26:33.102Z,12.40
2023-02-06T12:27:33.089Z,12.90
2023-02-06T12:28:33.036Z,13.30
2023-02-06T12:29:34.047Z,12.60
2023-02-06T12:30:33.031Z,12.30
2023-02-06T12:31:33.208Z,13.20
2023-02-06T12:32:32.996Z,12.30
2023-02-06T12:33:32.937Z,13.20
2023-02-06T12:34:33.917Z,13.70
2023-02-06T12:35:32.975Z,11.80
2023-02-06T12:36:32.970Z,12.40
2023-02-06T12:37:32.939Z,13.20
2023-02-06T12:38:32.872Z,12.60
2023-02-06T12:39:33.812Z,12.70
2023-02-06T12:40:32.877Z,13.10
2023-02-06T12:41:32.892Z,12.90
2023-02-06T12:42:32.903Z,14.50
2023-02-06T12:43:32.848Z,14.30
2023-02-06T12:44:32.868Z,13.90
2023-02-06T12:45:33.825Z,13.60
2023-02-06T12:46:32.858Z,13.30
2023-02-06T12:47:32.790Z,13.50
2023-02-06T12:48:32.777Z,13.40
2023-02-06T12:49:33.581Z,13.20
2023-02-06T12:50:32.753Z,14.60
2023-02-06T12:51:33.786Z,13.10
2023-02-06T12:52:32.762Z,13.10
2023-02-06T12:53:32.760Z,12.50
2023-02-06T12:54:33.650Z,12.60
2023-02-06T12:55:32.736Z,13.80
2023-02-06T12:56:32.634Z,13.30
2023-02-06T12:57:33.675Z,12.50
2023-02-06T12:58:32.702Z,13.70
2023-02-06T12:59:32.643Z,13.50
2023-02-06T13:00:32.606Z,13.60
2023-02-06T13:01:34.626Z,12.30
2023-02-06T13:02:33.657Z,13.00
2023-02-06T13:03:32.587Z,13.10
2023-02-06T13:04:32.639Z,13.40
2023-02-06T13:05:32.682Z,13.70
2023-02-06T13:06:32.560Z,13.60
2023-02-06T13:07:36.162Z,12.60
2023-02-06T13:08:34.937Z,11.70
2023-02-06T13:09:32.484Z,13.00
2023-02-06T13:10:32.481Z,12.50
2023-02-06T13:11:32.467Z,12.50